CMB807 Details

Departure: Thule Air Base (BGTL)
Arrival: Joint Base McGuire Dix Lakehurst (KWRI)
Notes: USTRANSCOM CONTRACT FLIGHT


Current Weather Information
BGTL 212156Z AUTO 27006KT 9999 CLR M01/M01 A3032 RMK AO2 SLP253 T10101013 TSNO $
KWRI 212156Z AUTO 31016G21KT 10SM CLR 22/04 A2996 RMK AO2 SLP145 T02160037